Time;durP1;ratioP1;P1;durP2;ratioP2;P2;SDS_P1;SDS_P2;PMS_P1;PMS_P2;Temp;Humidity;BMP_temperature;BMP_pressure;BME280_temperature;BME280_humidity;BME280_pressure;Samples;Min_cycle;Max_cycle;Signal;HPM_P1;HPM_P2
2021/10/31 00:01:22;;;;;;;19.30;17.20;;;11.60;99.90;;;;;;5004878;28;20913;-80
2021/10/31 00:03:47;;;;;;;24.87;17.70;;;11.70;99.90;;;;;;5005441;28;20507;-80
2021/10/31 00:06:13;;;;;;;21.80;16.70;;;11.70;99.90;;;;;;5006982;28;20279;-81
2021/10/31 00:08:39;;;;;;;23.47;18.70;;;11.70;99.90;;;;;;5003714;28;20637;-79
2021/10/31 00:11:06;;;;;;;21.13;17.80;;;11.70;99.90;;;;;;5006126;28;20189;-81
2021/10/31 00:13:33;;;;;;;23.77;17.63;;;11.60;99.90;;;;;;5006591;28;20484;-80
2021/10/31 00:15:58;;;;;;;22.40;18.20;;;11.60;99.90;;;;;;5007340;28;20428;-80
2021/10/31 00:18:25;;;;;;;29.13;19.20;;;11.50;99.90;;;;;;5006637;28;20448;-79
2021/10/31 00:20:50;;;;;;;25.43;20.00;;;11.30;99.90;;;;;;5005793;28;20199;-80
2021/10/31 00:23:16;;;;;;;25.33;19.77;;;11.20;99.90;;;;;;5009747;28;20530;-81
2021/10/31 00:25:42;;;;;;;27.27;19.10;;;11.20;99.90;;;;;;5024338;28;20221;-80
2021/10/31 00:28:07;;;;;;;22.83;17.80;;;11.20;99.90;;;;;;5017758;28;20216;-76
2021/10/31 00:30:33;;;;;;;20.00;17.87;;;11.20;99.90;;;;;;5010307;28;20193;-77
2021/10/31 00:32:59;;;;;;;21.30;18.93;;;11.30;99.90;;;;;;5010988;28;20232;-77
2021/10/31 00:35:25;;;;;;;22.03;18.53;;;11.30;99.90;;;;;;5008405;28;20212;-78
2021/10/31 00:37:51;;;;;;;23.77;17.53;;;11.40;99.90;;;;;;5011304;28;20436;-80
2021/10/31 00:40:17;;;;;;;23.03;19.53;;;11.30;99.90;;;;;;5016259;28;20493;-76
2021/10/31 00:42:42;;;;;;;27.97;18.60;;;11.30;99.90;;;;;;4991208;28;20256;-79
2021/10/31 00:45:08;;;;;;;20.07;17.90;;;11.40;99.90;;;;;;5011058;28;20192;-77
2021/10/31 00:47:34;;;;;;;20.70;18.07;;;11.30;99.90;;;;;;5007180;28;20197;-77
2021/10/31 00:50:00;;;;;;;24.90;16.87;;;11.40;99.90;;;;;;5016212;28;20473;-78
2021/10/31 00:52:27;;;;;;;20.07;17.57;;;11.50;99.90;;;;;;5010490;28;20235;-77
2021/10/31 00:54:55;;;;;;;19.63;17.13;;;11.60;99.90;;;;;;5006430;28;20981;-76
2021/10/31 00:57:21;;;;;;;22.70;18.90;;;11.50;99.90;;;;;;5009355;28;20451;-78
2021/10/31 00:59:47;;;;;;;20.53;17.20;;;11.60;99.90;;;;;;4977840;28;20963;-76
2021/10/31 01:02:15;;;;;;;20.30;18.10;;;11.50;99.90;;;;;;5015293;28;20571;-76
2021/10/31 01:04:47;;;;;;;21.03;17.73;;;11.60;99.90;;;;;;5011402;28;20670;-78
2021/10/31 01:07:16;;;;;;;18.50;15.90;;;11.40;99.90;;;;;;4993928;28;21052;-77
2021/10/31 01:09:50;;;;;;;22.60;17.53;;;11.50;99.90;;;;;;5013232;28;20429;-78
2021/10/31 01:12:48;;;;;;;20.97;18.30;;;11.50;99.90;;;;;;4989729;28;21035;-77
2021/10/31 01:15:16;;;;;;;21.07;18.00;;;11.60;99.90;;;;;;5006672;28;20728;-78
2021/10/31 01:18:31;;;;;;;23.40;18.30;;;11.60;99.90;;;;;;5009207;28;20502;-78
2021/10/31 01:21:21;;;;;;;20.10;17.27;;;11.50;99.90;;;;;;5006051;28;20465;-78
2021/10/31 01:24:25;;;;;;;24.43;19.43;;;11.60;99.90;;;;;;5007744;28;20479;-79
2021/10/31 01:27:17;;;;;;;21.60;17.00;;;11.40;99.90;;;;;;5007037;28;20432;-78
2021/10/31 01:29:54;;;;;;;21.20;16.50;;;11.40;99.90;;;;;;5005970;28;20463;-78
2021/10/31 01:32:36;;;;;;;20.63;17.77;;;11.50;99.90;;;;;;5004406;28;20439;-80
2021/10/31 01:35:22;;;;;;;23.43;17.70;;;11.50;99.90;;;;;;5006700;28;20964;-79
2021/10/31 01:38:15;;;;;;;21.20;17.80;;;11.60;99.90;;;;;;5003351;28;20448;-79
2021/10/31 01:40:45;;;;;;;22.13;17.00;;;11.70;99.90;;;;;;5004829;28;20543;-79
2021/10/31 01:43:11;;;;;;;21.87;17.10;;;11.70;99.90;;;;;;5005834;28;20490;-78
2021/10/31 01:45:45;;;;;;;21.83;18.57;;;11.70;99.90;;;;;;5003516;28;20439;-79
2021/10/31 01:48:38;;;;;;;19.40;17.40;;;11.70;99.90;;;;;;5006706;28;20191;-79
2021/10/31 01:51:13;;;;;;;18.70;16.70;;;11.70;99.90;;;;;;5001412;28;20444;-78
2021/10/31 01:53:54;;;;;;;24.30;17.30;;;11.70;99.90;;;;;;5004998;28;20467;-78
2021/10/31 01:56:22;;;;;;;21.13;16.43;;;11.60;99.90;;;;;;5005445;28;20443;-78
2021/10/31 01:59:00;;;;;;;21.10;18.00;;;11.70;99.90;;;;;;5004841;28;20440;-79
2021/10/31 02:01:29;;;;;;;21.47;18.03;;;11.70;99.90;;;;;;5001014;28;20528;-76
2021/10/31 02:03:59;;;;;;;20.60;17.33;;;11.70;99.90;;;;;;5004013;28;20507;-77
2021/10/31 02:06:25;;;;;;;22.07;18.10;;;11.70;99.90;;;;;;4996692;28;20453;-78
2021/10/31 02:08:53;;;;;;;19.90;15.93;;;11.70;99.90;;;;;;5006655;28;20486;-78
2021/10/31 02:11:20;;;;;;;19.53;16.47;;;11.60;99.90;;;;;;5004912;28;20449;-78
2021/10/31 02:13:49;;;;;;;22.13;18.00;;;11.70;99.90;;;;;;5007487;28;20460;-79
2021/10/31 02:16:16;;;;;;;20.77;17.47;;;11.70;99.90;;;;;;5003227;28;20505;-79
2021/10/31 02:18:44;;;;;;;19.00;16.37;;;11.70;99.90;;;;;;5003310;28;20502;-79
2021/10/31 02:21:10;;;;;;;22.03;17.60;;;11.70;99.90;;;;;;5003653;28;20463;-79
2021/10/31 02:23:37;;;;;;;20.00;16.67;;;11.60;99.90;;;;;;4997738;28;20479;-82
2021/10/31 02:26:02;;;;;;;21.93;18.07;;;11.70;99.90;;;;;;4996774;28;20478;-79
2021/10/31 02:28:28;;;;;;;25.40;17.20;;;11.70;99.90;;;;;;5011009;28;20474;-79
2021/10/31 02:30:54;;;;;;;22.20;17.90;;;11.70;99.90;;;;;;5017140;28;20747;-77
2021/10/31 02:33:20;;;;;;;19.67;16.83;;;11.70;99.90;;;;;;5010929;28;20213;-80
2021/10/31 02:35:45;;;;;;;20.07;17.30;;;11.70;99.90;;;;;;5011397;28;20444;-80
2021/10/31 02:38:11;;;;;;;19.73;16.73;;;11.70;99.90;;;;;;5009536;28;20200;-79
2021/10/31 02:40:37;;;;;;;23.80;16.20;;;11.70;99.90;;;;;;5013573;28;20181;-79
2021/10/31 02:43:04;;;;;;;20.43;15.90;;;11.60;99.90;;;;;;5008454;28;20275;-81
2021/10/31 02:45:30;;;;;;;20.80;16.87;;;11.60;99.90;;;;;;4998649;28;20201;-77
2021/10/31 02:48:03;;;;;;;19.90;15.57;;;11.60;99.90;;;;;;4991163;28;20443;-79
2021/10/31 02:50:37;;;;;;;18.20;15.33;;;11.50;99.90;;;;;;4992976;28;20477;-80
2021/10/31 02:53:24;;;;;;;20.67;16.07;;;11.50;99.90;;;;;;5006479;28;20468;-78
2021/10/31 02:56:02;;;;;;;19.00;16.57;;;11.60;99.90;;;;;;5002845;28;20486;-79
2021/10/31 02:59:08;;;;;;;21.53;17.07;;;11.40;99.90;;;;;;5002974;28;20442;-78
2021/10/31 03:01:35;;;;;;;18.77;15.97;;;11.50;99.90;;;;;;4990424;28;20443;-78
2021/10/31 03:04:02;;;;;;;22.00;15.53;;;11.50;99.90;;;;;;5005335;28;20559;-80
2021/10/31 03:06:28;;;;;;;19.40;16.30;;;11.40;99.90;;;;;;4993499;28;20748;-80
2021/10/31 03:08:53;;;;;;;19.07;15.70;;;11.50;99.90;;;;;;5005863;28;20448;-80
2021/10/31 03:11:19;;;;;;;17.93;16.07;;;11.60;99.90;;;;;;5005551;28;20460;-80
2021/10/31 03:13:45;;;;;;;17.47;15.63;;;11.70;99.90;;;;;;5006831;28;20235;-81
2021/10/31 03:16:11;;;;;;;19.87;15.17;;;11.80;99.90;;;;;;5007260;28;20994;-80
2021/10/31 03:18:37;;;;;;;20.20;15.90;;;11.80;99.90;;;;;;5006771;28;20196;-79
2021/10/31 03:21:03;;;;;;;18.00;16.00;;;11.70;99.90;;;;;;4990956;28;20193;-79
2021/10/31 03:23:30;;;;;;;19.30;15.50;;;11.60;99.90;;;;;;5003711;28;20300;-79
2021/10/31 03:25:56;;;;;;;20.93;17.83;;;11.60;99.90;;;;;;5005726;28;21937;-80
2021/10/31 03:28:22;;;;;;;18.40;15.87;;;11.60;99.90;;;;;;4989304;28;20443;-81
2021/10/31 03:30:48;;;;;;;20.43;16.10;;;11.70;99.90;;;;;;4991221;28;20444;-82
2021/10/31 03:33:14;;;;;;;20.83;16.50;;;11.70;99.90;;;;;;5008501;28;20463;-80
2021/10/31 03:35:41;;;;;;;17.70;15.40;;;11.70;99.90;;;;;;5004771;28;20941;-80
2021/10/31 03:38:07;;;;;;;17.13;15.33;;;11.80;99.90;;;;;;5005280;28;20520;-78
2021/10/31 03:40:33;;;;;;;16.57;14.77;;;11.80;99.90;;;;;;5002069;28;20471;-79
2021/10/31 03:42:59;;;;;;;18.90;15.10;;;11.90;99.90;;;;;;5005108;28;20215;-79
2021/10/31 03:45:24;;;;;;;19.20;15.67;;;11.90;99.90;;;;;;5004571;28;20428;-79
2021/10/31 03:47:50;;;;;;;17.60;14.67;;;11.90;99.90;;;;;;5001863;28;20220;-77
2021/10/31 03:50:18;;;;;;;16.90;14.97;;;11.90;99.90;;;;;;5008548;28;20287;-79
2021/10/31 03:52:44;;;;;;;19.30;16.27;;;11.90;99.90;;;;;;5002390;28;20200;-79
2021/10/31 03:55:14;;;;;;;18.03;15.90;;;11.90;99.90;;;;;;4997425;28;20469;-78
2021/10/31 03:57:40;;;;;;;16.10;14.40;;;11.80;99.90;;;;;;5011389;28;20966;-83
2021/10/31 04:00:08;;;;;;;16.87;13.77;;;11.80;99.90;;;;;;5009073;28;20448;-79
2021/10/31 04:02:35;;;;;;;15.23;13.63;;;11.80;99.90;;;;;;5016467;28;20461;-79
2021/10/31 04:05:01;;;;;;;16.07;14.27;;;11.80;99.90;;;;;;5009381;28;20978;-80
2021/10/31 04:07:26;;;;;;;18.53;14.60;;;11.80;99.90;;;;;;5015652;28;20443;-78
2021/10/31 04:09:52;;;;;;;18.50;15.77;;;11.80;99.90;;;;;;5011797;28;20211;-78
2021/10/31 04:12:18;;;;;;;16.90;14.07;;;11.80;99.90;;;;;;5006790;28;20198;-79
2021/10/31 04:14:43;;;;;;;19.17;15.50;;;11.80;99.90;;;;;;5011594;28;20221;-80
2021/10/31 04:17:09;;;;;;;16.53;14.83;;;11.80;99.90;;;;;;5006598;28;20193;-82
2021/10/31 04:19:35;;;;;;;17.63;14.73;;;11.80;99.90;;;;;;5011974;28;20189;-77
2021/10/31 04:22:00;;;;;;;20.40;14.80;;;11.80;99.90;;;;;;5010722;28;20201;-78
2021/10/31 04:24:26;;;;;;;19.43;14.70;;;11.80;99.90;;;;;;5007801;28;20669;-77
2021/10/31 04:27:01;;;;;;;17.30;14.10;;;11.90;99.90;;;;;;5003972;28;20189;-78
2021/10/31 04:29:27;;;;;;;19.43;15.50;;;11.80;99.90;;;;;;5007382;28;20563;-76
2021/10/31 04:31:54;;;;;;;15.57;13.83;;;11.70;99.90;;;;;;5003934;28;20433;-76
2021/10/31 04:34:20;;;;;;;17.40;15.13;;;11.80;99.90;;;;;;4988111;28;20561;-77
2021/10/31 04:36:45;;;;;;;19.37;16.23;;;11.50;99.90;;;;;;5005511;28;20435;-76
2021/10/31 04:39:12;;;;;;;18.70;15.03;;;11.30;99.90;;;;;;4987396;28;20504;-76
2021/10/31 04:41:39;;;;;;;18.60;15.27;;;11.40;99.90;;;;;;5006903;28;20182;-76
2021/10/31 04:44:05;;;;;;;20.17;16.23;;;11.40;99.90;;;;;;4994327;28;20567;-77
2021/10/31 04:46:31;;;;;;;19.60;14.83;;;11.60;99.90;;;;;;5006595;28;20425;-76
2021/10/31 04:48:57;;;;;;;17.27;14.50;;;11.60;99.90;;;;;;5005775;28;20435;-75
2021/10/31 04:51:22;;;;;;;19.40;15.60;;;11.60;99.90;;;;;;5007977;28;20427;-76
2021/10/31 04:53:48;;;;;;;17.80;14.27;;;11.70;99.90;;;;;;5012011;28;20217;-76
2021/10/31 04:56:14;;;;;;;17.67;15.40;;;11.80;99.90;;;;;;5002554;28;20203;-75
2021/10/31 04:58:39;;;;;;;16.50;14.30;;;11.90;99.90;;;;;;5011474;28;20191;-77
2021/10/31 05:01:05;;;;;;;16.73;15.03;;;11.90;99.90;;;;;;5005917;28;21143;-76
2021/10/31 05:03:31;;;;;;;16.83;15.03;;;12.00;99.90;;;;;;4991548;28;20212;-76
2021/10/31 05:05:57;;;;;;;21.40;14.57;;;12.00;99.90;;;;;;5005450;28;20185;-78
2021/10/31 05:08:23;;;;;;;19.17;14.00;;;12.00;99.90;;;;;;5008447;28;20186;-76
2021/10/31 05:10:49;;;;;;;16.03;14.43;;;11.90;99.90;;;;;;5008628;28;20955;-76
2021/10/31 05:13:15;;;;;;;17.23;14.43;;;12.00;99.90;;;;;;5002053;28;20209;-76
2021/10/31 05:15:40;;;;;;;17.67;15.17;;;11.90;99.90;;;;;;5005766;28;20509;-74
2021/10/31 05:18:07;;;;;;;22.57;14.27;;;11.90;99.90;;;;;;5005227;28;20698;-76
2021/10/31 05:20:32;;;;;;;16.57;14.37;;;11.80;99.90;;;;;;5014909;28;20246;-76
2021/10/31 05:22:58;;;;;;;15.77;14.03;;;11.90;99.90;;;;;;5005276;28;20495;-76
2021/10/31 05:25:24;;;;;;;16.40;13.63;;;12.00;99.90;;;;;;5006876;28;20193;-75
2021/10/31 05:27:49;;;;;;;19.20;15.30;;;12.10;99.90;;;;;;5006920;28;20687;-77
2021/10/31 05:30:15;;;;;;;16.60;14.63;;;12.10;99.90;;;;;;5006592;28;20189;-75
2021/10/31 05:32:41;;;;;;;18.63;14.43;;;12.20;99.90;;;;;;5009130;28;20224;-75
2021/10/31 05:35:09;;;;;;;15.80;14.20;;;12.20;99.90;;;;;;5003868;28;20191;-77
2021/10/31 05:37:39;;;;;;;16.23;13.40;;;12.30;99.90;;;;;;5010462;28;20439;-75
2021/10/31 05:40:07;;;;;;;15.93;14.27;;;12.20;99.90;;;;;;4991154;28;20424;-75
2021/10/31 05:42:33;;;;;;;26.53;14.70;;;12.10;99.90;;;;;;5008512;28;20448;-76
2021/10/31 05:44:59;;;;;;;15.87;14.00;;;12.00;99.90;;;;;;5005489;28;21048;-76
2021/10/31 05:47:25;;;;;;;23.30;14.27;;;12.00;99.90;;;;;;5005110;28;20471;-76
2021/10/31 05:49:52;;;;;;;17.40;14.70;;;12.00;99.90;;;;;;5008719;28;20181;-75
2021/10/31 05:52:18;;;;;;;15.77;13.30;;;12.00;99.90;;;;;;5002713;28;20494;-76
2021/10/31 05:54:44;;;;;;;18.03;14.03;;;11.90;99.90;;;;;;5010683;28;20473;-77
2021/10/31 05:57:09;;;;;;;16.00;13.90;;;12.00;99.90;;;;;;5006685;28;20829;-75
2021/10/31 05:59:35;;;;;;;14.40;12.90;;;11.90;99.90;;;;;;5004863;28;20182;-75
2021/10/31 06:02:01;;;;;;;14.53;11.90;;;12.10;99.90;;;;;;5005864;28;20661;-76
2021/10/31 06:04:28;;;;;;;14.93;13.20;;;12.20;99.90;;;;;;5007369;28;20209;-77
2021/10/31 06:06:54;;;;;;;13.40;12.03;;;12.00;99.90;;;;;;5009877;28;20437;-78
2021/10/31 06:09:20;;;;;;;24.07;11.63;;;12.10;99.90;;;;;;5005903;28;20486;-73
2021/10/31 06:11:45;;;;;;;13.20;11.80;;;12.00;99.90;;;;;;4994349;28;20420;-75
2021/10/31 06:14:12;;;;;;;15.03;12.07;;;12.10;99.90;;;;;;5002416;28;20209;-76
2021/10/31 06:16:38;;;;;;;16.90;11.77;;;12.10;99.90;;;;;;4995623;28;20280;-76
2021/10/31 06:19:05;;;;;;;14.40;12.23;;;12.10;99.90;;;;;;5004388;28;20799;-76
2021/10/31 06:21:31;;;;;;;13.47;12.07;;;12.10;99.90;;;;;;5002634;28;20445;-75
2021/10/31 06:23:56;;;;;;;12.40;11.10;;;12.00;99.90;;;;;;5006854;28;20491;-75
2021/10/31 06:26:22;;;;;;;14.07;11.03;;;12.00;99.90;;;;;;5002318;28;20193;-77
2021/10/31 06:28:48;;;;;;;11.87;10.67;;;12.10;99.90;;;;;;5009448;28;20239;-76
2021/10/31 06:31:13;;;;;;;16.60;12.50;;;12.10;99.90;;;;;;5003265;28;20219;-75
2021/10/31 06:33:39;;;;;;;12.73;11.03;;;12.10;99.90;;;;;;4995168;28;20300;-75
2021/10/31 06:36:05;;;;;;;13.10;11.27;;;12.10;99.90;;;;;;5004221;28;20252;-78
2021/10/31 06:38:31;;;;;;;17.90;10.83;;;12.10;99.90;;;;;;5006043;28;20445;-75
2021/10/31 06:40:56;;;;;;;12.10;10.87;;;12.20;99.90;;;;;;5007010;28;20196;-78
2021/10/31 06:43:22;;;;;;;10.83;9.73;;;12.20;99.90;;;;;;5005935;28;20244;-77
2021/10/31 06:45:48;;;;;;;12.77;11.17;;;12.20;99.90;;;;;;5006132;28;20243;-77
2021/10/31 06:48:13;;;;;;;12.33;10.17;;;12.20;99.90;;;;;;5002951;28;20185;-77
2021/10/31 06:50:39;;;;;;;12.63;11.33;;;12.20;99.90;;;;;;5008081;28;20683;-77
2021/10/31 06:53:05;;;;;;;12.03;10.83;;;12.10;99.90;;;;;;5002318;28;20882;-75
2021/10/31 06:55:32;;;;;;;13.63;11.00;;;12.20;99.90;;;;;;4987817;28;20189;-76
2021/10/31 06:57:58;;;;;;;12.40;10.73;;;12.20;99.90;;;;;;4990078;28;20436;-76
2021/10/31 07:00:26;;;;;;;11.83;10.60;;;12.20;99.90;;;;;;5004647;28;20427;-75
2021/10/31 07:02:52;;;;;;;12.83;11.60;;;12.10;99.90;;;;;;4992297;28;20543;-77
2021/10/31 07:05:18;;;;;;;12.60;11.30;;;12.00;99.90;;;;;;5004463;28;20452;-75
2021/10/31 07:07:44;;;;;;;12.80;10.80;;;12.00;99.90;;;;;;5005949;28;20444;-75
2021/10/31 07:10:10;;;;;;;14.97;10.80;;;12.10;99.90;;;;;;5004482;28;20427;-76
2021/10/31 07:12:36;;;;;;;13.50;11.90;;;12.10;99.90;;;;;;5004466;28;20231;-76
2021/10/31 07:15:01;;;;;;;10.83;9.73;;;12.10;99.90;;;;;;5006567;28;20211;-76
2021/10/31 07:17:27;;;;;;;13.30;10.43;;;12.20;99.90;;;;;;5006395;28;20503;-76
2021/10/31 07:19:53;;;;;;;10.37;9.37;;;12.30;99.90;;;;;;5007267;28;20231;-77
2021/10/31 07:22:19;;;;;;;12.40;10.20;;;12.40;99.90;;;;;;5001989;28;20232;-75
2021/10/31 07:24:49;;;;;;;11.43;10.27;;;12.50;99.90;;;;;;5012599;28;20208;-77
2021/10/31 07:27:14;;;;;;;12.47;11.17;;;12.60;99.90;;;;;;5002612;28;20443;-76
2021/10/31 07:29:40;;;;;;;10.73;9.63;;;12.70;99.90;;;;;;4994312;28;20927;-77
2021/10/31 07:32:06;;;;;;;10.60;9.50;;;12.80;99.90;;;;;;5002840;28;20196;-76
2021/10/31 07:34:32;;;;;;;11.13;10.00;;;12.80;99.90;;;;;;5006152;28;20305;-76
2021/10/31 07:36:57;;;;;;;10.80;9.70;;;12.80;99.90;;;;;;5005090;28;20536;-76
2021/10/31 07:39:23;;;;;;;12.40;9.70;;;12.90;99.90;;;;;;5002653;28;20193;-77
2021/10/31 07:41:49;;;;;;;9.27;8.37;;;12.90;99.90;;;;;;5005866;28;20280;-77
2021/10/31 07:44:16;;;;;;;10.00;9.10;;;13.00;99.90;;;;;;5001869;28;20228;-76
2021/10/31 07:46:42;;;;;;;9.73;8.60;;;13.10;99.90;;;;;;5006163;28;20433;-75
2021/10/31 07:49:09;;;;;;;10.70;9.60;;;13.10;99.90;;;;;;5001722;28;20439;-77
2021/10/31 07:51:35;;;;;;;10.87;9.60;;;13.10;99.90;;;;;;5005283;28;20182;-75
2021/10/31 07:54:01;;;;;;;11.40;9.40;;;13.10;99.90;;;;;;5005700;28;20447;-77
2021/10/31 07:56:30;;;;;;;9.40;8.40;;;13.10;99.90;;;;;;5000627;28;20276;-74
2021/10/31 07:58:55;;;;;;;10.50;9.50;;;13.20;99.90;;;;;;5006893;28;20196;-74
2021/10/31 08:01:23;;;;;;;10.23;9.23;;;13.20;99.90;;;;;;5003296;28;20436;-75
2021/10/31 08:03:50;;;;;;;12.13;9.37;;;13.30;99.90;;;;;;4987194;28;20217;-76
2021/10/31 08:06:15;;;;;;;13.03;10.73;;;13.10;99.90;;;;;;5002370;28;20439;-73
2021/10/31 08:08:41;;;;;;;11.33;9.27;;;13.10;99.90;;;;;;5002732;28;20532;-76
2021/10/31 08:11:07;;;;;;;11.70;10.50;;;13.00;99.90;;;;;;5006447;28;20189;-76
2021/10/31 08:13:32;;;;;;;10.40;9.00;;;13.10;99.90;;;;;;5006870;28;20261;-77
2021/10/31 08:15:58;;;;;;;12.43;10.27;;;13.10;99.90;;;;;;5005445;28;20623;-76
2021/10/31 08:18:24;;;;;;;10.93;9.80;;;13.10;99.90;;;;;;5004649;28;20884;-76
2021/10/31 08:20:50;;;;;;;12.40;11.10;;;13.10;99.90;;;;;;5012155;28;20189;-78
2021/10/31 08:23:16;;;;;;;10.70;9.70;;;13.10;99.90;;;;;;5002757;28;20522;-77
2021/10/31 08:25:43;;;;;;;15.07;10.77;;;13.20;99.90;;;;;;5004993;28;20189;-76
2021/10/31 08:28:10;;;;;;;11.87;10.67;;;13.30;99.90;;;;;;5004904;28;20185;-77
2021/10/31 08:30:36;;;;;;;12.40;9.90;;;13.30;99.90;;;;;;5001471;28;21289;-77
2021/10/31 08:33:20;;;;;;;11.27;10.17;;;13.40;99.90;;;;;;5008055;28;20452;-75
2021/10/31 08:35:46;;;;;;;11.77;10.57;;;13.40;99.90;;;;;;5000791;28;20451;-75
2021/10/31 08:38:12;;;;;;;14.00;12.50;;;13.50;99.90;;;;;;4996083;28;20428;-77
2021/10/31 08:40:40;;;;;;;13.40;11.80;;;13.50;99.90;;;;;;5005001;28;20483;-75
2021/10/31 08:43:08;;;;;;;13.60;10.23;;;13.60;99.90;;;;;;5006596;28;20992;-76
2021/10/31 08:45:35;;;;;;;11.20;10.07;;;13.60;99.90;;;;;;5006352;28;20428;-76
2021/10/31 08:48:00;;;;;;;12.43;8.80;;;13.70;99.90;;;;;;5007623;28;20499;-74
2021/10/31 08:50:26;;;;;;;10.50;8.53;;;13.80;99.90;;;;;;5011255;28;20539;-74
2021/10/31 08:52:52;;;;;;;11.93;9.53;;;13.90;99.90;;;;;;5002813;28;20205;-75
2021/10/31 08:55:18;;;;;;;10.43;9.27;;;14.00;99.90;;;;;;5010021;28;20422;-77
2021/10/31 08:57:43;;;;;;;10.97;9.70;;;14.00;99.90;;;;;;5006937;28;20668;-77
2021/10/31 09:00:11;;;;;;;9.63;8.07;;;14.10;99.90;;;;;;5005705;28;20246;-76
2021/10/31 09:02:37;;;;;;;9.60;8.00;;;14.20;99.90;;;;;;5008325;28;20213;-75
2021/10/31 09:05:07;;;;;;;9.53;8.57;;;14.30;99.90;;;;;;5005470;28;20471;-77
2021/10/31 09:07:33;;;;;;;8.57;7.73;;;14.30;99.90;;;;;;4996604;28;20196;-77
2021/10/31 09:09:59;;;;;;;11.70;8.97;;;14.50;99.90;;;;;;5005713;28;20432;-77
2021/10/31 09:12:25;;;;;;;10.70;7.83;;;14.60;99.90;;;;;;4992746;28;20444;-76
2021/10/31 09:14:51;;;;;;;9.10;7.90;;;14.60;99.90;;;;;;5011399;28;21237;-76
2021/10/31 09:17:17;;;;;;;10.63;9.07;;;14.80;99.90;;;;;;5010631;28;20285;-75
2021/10/31 09:19:43;;;;;;;9.70;8.60;;;14.80;99.90;;;;;;5012802;28;20279;-75
2021/10/31 09:22:09;;;;;;;9.53;8.63;;;14.90;99.90;;;;;;5006072;28;21131;-77
2021/10/31 09:24:35;;;;;;;9.30;8.37;;;15.00;99.90;;;;;;5011894;28;20204;-76
2021/10/31 09:27:01;;;;;;;10.27;9.27;;;15.00;99.90;;;;;;5006312;28;20433;-75
2021/10/31 09:29:29;;;;;;;9.67;8.67;;;15.10;99.90;;;;;;5019146;28;20216;-76
2021/10/31 09:31:54;;;;;;;9.00;8.10;;;15.20;99.90;;;;;;5010418;28;20181;-78
2021/10/31 09:34:21;;;;;;;9.13;7.73;;;15.20;99.90;;;;;;5010598;28;20463;-76
2021/10/31 09:36:46;;;;;;;9.63;8.47;;;15.40;99.90;;;;;;5007435;28;20700;-75
2021/10/31 09:39:12;;;;;;;9.10;8.03;;;15.60;99.90;;;;;;5005946;28;20435;-75
2021/10/31 09:41:38;;;;;;;8.93;8.13;;;15.70;99.90;;;;;;4997106;28;20189;-75
2021/10/31 09:44:24;;;;;;;10.27;9.17;;;15.80;99.90;;;;;;5006661;28;20468;-76
2021/10/31 09:46:50;;;;;;;12.00;9.70;;;15.70;99.90;;;;;;4992980;28;20451;-75
2021/10/31 09:49:16;;;;;;;10.90;9.80;;;15.70;99.90;;;;;;5010801;28;20427;-73
2021/10/31 09:51:44;;;;;;;9.73;8.80;;;15.70;99.90;;;;;;5005462;28;20185;-75
2021/10/31 09:54:11;;;;;;;9.53;8.60;;;15.80;99.90;;;;;;4991621;28;21029;-77
2021/10/31 09:56:38;;;;;;;13.47;8.83;;;15.80;99.90;;;;;;5006643;28;20481;-76
2021/10/31 09:59:10;;;;;;;8.27;7.43;;;15.90;99.90;;;;;;5007515;28;20424;-76
2021/10/31 10:04:26;;;;;;;6.13;5.13;;;16.10;99.90;;;;;;5003169;28;21033;-77
2021/10/31 10:06:53;;;;;;;5.63;4.77;;;16.10;99.90;;;;;;5010593;28;20420;-76
2021/10/31 10:09:19;;;;;;;7.43;5.20;;;16.10;99.90;;;;;;5004819;28;20846;-77
2021/10/31 10:11:46;;;;;;;5.37;4.60;;;16.20;99.90;;;;;;5009716;28;20424;-75
2021/10/31 10:14:13;;;;;;;6.10;5.50;;;16.10;99.90;;;;;;5004295;28;20497;-76
2021/10/31 10:16:40;;;;;;;6.67;5.00;;;16.10;99.90;;;;;;5011395;28;21552;-76
2021/10/31 10:19:21;;;;;;;6.10;5.50;;;16.20;99.90;;;;;;5007941;28;20423;-75
2021/10/31 10:21:56;;;;;;;5.73;5.20;;;16.40;99.90;;;;;;4991333;28;20546;-75
2021/10/31 10:24:23;;;;;;;5.53;5.03;;;16.40;99.90;;;;;;5007797;28;20463;-76
2021/10/31 10:26:50;;;;;;;5.40;4.87;;;16.60;99.90;;;;;;5002928;28;20422;-77
2021/10/31 10:29:21;;;;;;;5.10;4.60;;;16.70;99.90;;;;;;5010405;28;20446;-75
2021/10/31 10:31:53;;;;;;;5.07;4.30;;;16.70;99.90;;;;;;5002594;28;20443;-75
2021/10/31 10:34:50;;;;;;;4.53;4.10;;;16.70;99.90;;;;;;5001906;28;20460;-74
2021/10/31 10:37:16;;;;;;;4.23;3.83;;;16.70;99.90;;;;;;5006006;28;20463;-77
2021/10/31 10:39:44;;;;;;;5.67;4.33;;;16.70;99.90;;;;;;5004715;28;20462;-76
2021/10/31 10:42:19;;;;;;;5.13;4.50;;;16.70;99.90;;;;;;5010390;28;20201;-75
2021/10/31 10:44:46;;;;;;;8.03;4.87;;;16.90;99.90;;;;;;5004893;28;20452;-75
2021/10/31 10:47:19;;;;;;;7.70;6.90;;;16.90;99.90;;;;;;5003502;28;20451;-74
2021/10/31 10:49:45;;;;;;;6.27;5.70;;;16.90;99.90;;;;;;4994393;28;20444;-74
2021/10/31 10:52:20;;;;;;;5.90;5.30;;;17.00;99.90;;;;;;5005503;28;20458;-76
2021/10/31 10:54:49;;;;;;;6.87;4.50;;;17.00;99.90;;;;;;5004380;28;20542;-76
2021/10/31 10:57:15;;;;;;;4.80;4.30;;;17.10;99.90;;;;;;5008406;28;20926;-76
2021/10/31 10:59:41;;;;;;;10.50;5.33;;;17.30;99.90;;;;;;5002315;28;20924;-75
2021/10/31 11:02:08;;;;;;;5.43;4.93;;;17.30;99.90;;;;;;5009731;28;20416;-76
2021/10/31 11:04:35;;;;;;;6.00;5.20;;;17.50;99.90;;;;;;5001255;28;20468;-76
2021/10/31 11:07:02;;;;;;;7.20;5.10;;;17.60;99.90;;;;;;5012957;28;20408;-75
2021/10/31 11:09:43;;;;;;;5.07;4.57;;;17.70;99.90;;;;;;5004564;28;20440;-76
2021/10/31 11:12:22;;;;;;;6.00;4.80;;;17.70;99.90;;;;;;5007458;28;20428;-75
2021/10/31 11:14:49;;;;;;;5.40;4.30;;;18.00;99.90;;;;;;5004234;28;20436;-76
2021/10/31 11:17:17;;;;;;;5.03;4.30;;;18.00;99.90;;;;;;5003556;28;21514;-75
2021/10/31 11:19:44;;;;;;;7.40;4.30;;;17.90;99.90;;;;;;5009258;28;20432;-76
2021/10/31 11:22:10;;;;;;;5.03;4.53;;;17.90;99.90;;;;;;5002437;28;20440;-76
2021/10/31 11:24:38;;;;;;;4.77;4.27;;;17.90;99.90;;;;;;5011425;28;20565;-78
2021/10/31 11:27:08;;;;;;;4.70;4.30;;;17.90;99.90;;;;;;5007631;28;20428;-75
2021/10/31 11:29:34;;;;;;;5.73;4.17;;;18.00;99.90;;;;;;5006124;28;20451;-77
2021/10/31 11:32:00;;;;;;;5.63;4.70;;;18.20;99.90;;;;;;5008496;28;20508;-76
2021/10/31 11:34:27;;;;;;;4.60;4.13;;;18.20;99.90;;;;;;5002797;28;20594;-76
2021/10/31 11:36:54;;;;;;;4.40;4.00;;;18.30;99.90;;;;;;5006662;28;20447;-74
2021/10/31 11:39:21;;;;;;;4.57;4.17;;;18.40;99.90;;;;;;5004985;28;20432;-77
2021/10/31 11:41:48;;;;;;;4.20;3.80;;;18.50;99.90;;;;;;5002679;28;20464;-76
2021/10/31 11:44:14;;;;;;;3.70;3.33;;;18.60;99.90;;;;;;5009873;28;20462;-77
2021/10/31 11:46:43;;;;;;;4.00;3.20;;;19.00;99.90;;;;;;4987989;28;20443;-76
2021/10/31 11:49:09;;;;;;;3.23;2.93;;;19.10;99.90;;;;;;5011417;28;20181;-75
2021/10/31 11:51:42;;;;;;;3.93;3.33;;;19.40;99.90;;;;;;5003001;28;20463;-75
2021/10/31 11:54:07;;;;;;;3.53;3.23;;;19.50;99.90;;;;;;4991037;28;20456;-75
2021/10/31 11:56:43;;;;;;;3.70;3.10;;;19.50;99.90;;;;;;5003731;28;20816;-75
2021/10/31 11:59:16;;;;;;;3.40;3.10;;;19.60;99.90;;;;;;5008645;28;20189;-75
2021/10/31 12:01:54;;;;;;;4.23;2.80;;;19.60;99.90;;;;;;5006785;28;20424;-75
2021/10/31 12:07:43;;;;;;;3.23;2.93;;;19.60;99.90;;;;;;5001834;28;20423;-77
2021/10/31 12:10:24;;;;;;;2.97;2.63;;;20.10;99.90;;;;;;5005353;28;20416;-74
2021/10/31 12:13:18;;;;;;;3.17;2.57;;;20.60;99.90;;;;;;5003926;28;20468;-75
2021/10/31 12:16:11;;;;;;;3.23;2.93;;;20.70;99.90;;;;;;5006818;28;20475;-75
2021/10/31 12:18:49;;;;;;;2.50;2.30;;;20.90;99.90;;;;;;5006953;28;20420;-76
2021/10/31 12:21:30;;;;;;;3.43;2.50;;;20.90;99.90;;;;;;5007754;28;20820;-77
2021/10/31 12:24:09;;;;;;;2.40;2.17;;;21.10;99.90;;;;;;5008318;28;21378;-75
2021/10/31 12:26:52;;;;;;;2.20;1.80;;;21.10;99.90;;;;;;5010663;28;20465;-75
2021/10/31 12:29:29;;;;;;;3.23;1.90;;;21.10;99.90;;;;;;4992389;28;20476;-75
2021/10/31 12:31:59;;;;;;;4.07;2.70;;;21.20;99.90;;;;;;5011586;28;20430;-75
2021/10/31 12:34:34;;;;;;;4.23;2.63;;;21.40;99.90;;;;;;5020363;28;20993;-75
2021/10/31 12:37:00;;;;;;;4.53;4.10;;;21.50;99.90;;;;;;5008788;28;20444;-76
2021/10/31 12:39:26;;;;;;;3.17;2.60;;;21.60;99.90;;;;;;5012029;28;20432;-76
2021/10/31 12:42:15;;;;;;;3.70;2.60;;;21.90;99.90;;;;;;5005216;28;20454;-76
2021/10/31 12:44:53;;;;;;;6.80;4.80;;;22.00;99.90;;;;;;5009918;28;20839;-73
2021/10/31 12:47:25;;;;;;;5.63;3.57;;;22.00;99.90;;;;;;4996797;28;20513;-73